Time;durP1;ratioP1;P1;durP2;ratioP2;P2;SDS_P1;SDS_P2;PMS_P1;PMS_P2;Temp;Humidity;BMP_temperature;BMP_pressure;BME280_temperature;BME280_humidity;BME280_pressure;Samples;Min_cycle;Max_cycle;Signal;HPM_P1;HPM_P2
2022/03/22 00:01:29;;;;;;;30.60;11.88;;;;;;;12.09;44.36;100074.41;4915622;29;20410;-49
2022/03/22 00:03:55;;;;;;;21.05;12.98;;;;;;;12.04;44.67;100071.50;4914321;29;20028;-50
2022/03/22 00:06:22;;;;;;;43.42;18.65;;;;;;;12.06;44.90;100075.59;4914185;29;20499;-50
2022/03/22 00:08:48;;;;;;;22.27;10.25;;;;;;;12.15;44.51;100077.19;4915605;29;20051;-50
2022/03/22 00:11:14;;;;;;;21.52;9.93;;;;;;;12.26;43.94;100085.66;4915517;29;20111;-50
2022/03/22 00:13:43;;;;;;;25.02;13.38;;;;;;;12.27;44.17;100085.47;4915488;29;20043;-50
2022/03/22 00:16:09;;;;;;;27.33;10.63;;;;;;;12.11;44.08;100085.59;4915496;29;20024;-50
2022/03/22 00:18:38;;;;;;;15.95;9.15;;;;;;;12.06;44.49;100085.31;4914180;29;20183;-50
2022/03/22 00:21:06;;;;;;;31.27;13.35;;;;;;;12.29;44.76;100086.09;4915216;29;20060;-50
2022/03/22 00:23:31;;;;;;;22.15;8.65;;;;;;;12.41;43.63;100083.06;4915408;29;20020;-50
2022/03/22 00:25:57;;;;;;;18.92;7.82;;;;;;;12.46;43.27;100094.69;4915565;29;20506;-50
2022/03/22 00:28:23;;;;;;;12.82;7.13;;;;;;;12.50;43.52;100090.72;4914092;29;20028;-50
2022/03/22 00:30:50;;;;;;;15.82;7.35;;;;;;;12.54;43.08;100088.53;4914050;29;20060;-50
2022/03/22 00:33:16;;;;;;;14.57;8.57;;;;;;;12.46;43.13;100094.69;4915321;29;20020;-49
2022/03/22 00:35:42;;;;;;;16.70;9.85;;;;;;;12.50;43.64;100092.53;4915307;29;20135;-50
2022/03/22 00:38:13;;;;;;;22.75;10.40;;;;;;;12.49;43.53;100088.25;4915312;29;20024;-49
2022/03/22 00:40:40;;;;;;;18.30;9.38;;;;;;;12.44;43.34;100087.97;4915296;29;20410;-49
2022/03/22 00:43:07;;;;;;;16.58;7.63;;;;;;;12.19;43.13;100098.69;4913962;29;20024;-50
2022/03/22 00:45:34;;;;;;;21.23;10.00;;;;;;;12.05;44.45;100097.63;4915113;29;20028;-49
2022/03/22 00:48:02;;;;;;;17.17;9.77;;;;;;;12.07;44.45;100092.19;4915196;29;20060;-50
2022/03/22 00:50:33;;;;;;;17.08;9.05;;;;;;;11.99;43.97;100093.91;4915199;29;20028;-50
2022/03/22 00:53:00;;;;;;;16.75;9.77;;;;;;;11.97;44.13;100088.00;4914325;29;20063;-50
2022/03/22 00:55:27;;;;;;;21.70;9.50;;;;;;;12.05;44.67;100088.91;4918656;29;20494;-50
2022/03/22 00:57:54;;;;;;;19.17;9.30;;;;;;;12.07;45.24;100093.00;4918637;29;20063;-50
2022/03/22 01:00:23;;;;;;;16.60;8.45;;;;;;;12.08;44.99;100086.75;4918549;29;20024;-51
2022/03/22 01:02:49;;;;;;;28.50;12.43;;;;;;;12.12;45.17;100095.13;4918563;29;20046;-49
2022/03/22 01:05:18;;;;;;;21.30;9.95;;;;;;;12.13;44.39;100092.34;4918419;29;20059;-49
2022/03/22 01:07:47;;;;;;;16.70;7.97;;;;;;;11.88;44.38;100091.63;4918470;29;20024;-49
2022/03/22 01:10:15;;;;;;;21.40;8.68;;;;;;;11.58;44.84;100094.09;4918413;29;20442;-49
2022/03/22 01:12:43;;;;;;;27.35;9.30;;;;;;;11.38;45.57;100095.50;4918424;29;20028;-50
2022/03/22 01:15:15;;;;;;;25.55;8.95;;;;;;;11.26;45.71;100091.59;4918365;29;20024;-49
2022/03/22 01:17:45;;;;;;;18.25;8.38;;;;;;;11.23;45.56;100091.94;4918602;29;20454;-50
2022/03/22 01:20:11;;;;;;;18.08;8.25;;;;;;;11.10;45.96;100082.78;4918294;29;20083;-49
2022/03/22 01:22:39;;;;;;;19.58;8.35;;;;;;;11.12;46.04;100093.13;4918234;29;20088;-50
2022/03/22 01:25:13;;;;;;;24.42;11.20;;;;;;;11.04;47.18;100085.28;4918037;29;20052;-50
2022/03/22 01:27:40;;;;;;;17.90;8.70;;;;;;;11.02;46.73;100084.63;4918145;29;20034;-49
2022/03/22 01:30:08;;;;;;;22.88;13.80;;;;;;;10.90;46.93;100081.53;4916784;29;20039;-50
2022/03/22 01:32:34;;;;;;;20.05;15.18;;;;;;;10.90;46.90;100084.97;4918027;29;20039;-49
2022/03/22 01:35:01;;;;;;;18.13;9.65;;;;;;;10.93;47.63;100089.91;4916633;29;20028;-49
2022/03/22 01:37:27;;;;;;;21.85;10.60;;;;;;;11.05;50.10;100081.66;4917928;29;20059;-49
2022/03/22 01:39:53;;;;;;;24.30;9.23;;;;;;;11.11;49.69;100079.19;4917938;29;20020;-49
2022/03/22 01:42:19;;;;;;;23.52;9.10;;;;;;;11.10;49.32;100081.97;4917833;29;20095;-50
2022/03/22 01:44:45;;;;;;;18.27;9.10;;;;;;;11.07;47.77;100079.69;4917784;29;20032;-50
2022/03/22 01:47:11;;;;;;;22.52;10.18;;;;;;;10.98;47.10;100081.50;4916419;29;20502;-50
2022/03/22 01:49:37;;;;;;;21.55;9.10;;;;;;;10.75;47.30;100078.78;4917771;29;20397;-50
2022/03/22 01:52:04;;;;;;;19.77;8.48;;;;;;;10.56;47.53;100065.03;4917603;29;20107;-50
2022/03/22 01:54:30;;;;;;;31.50;21.17;;;;;;;10.55;47.75;100075.69;4917623;29;20024;-50
2022/03/22 01:56:56;;;;;;;26.95;12.88;;;;;;;10.54;47.88;100076.66;4917867;29;20035;-50
2022/03/22 01:59:22;;;;;;;33.45;21.90;;;;;;;10.35;48.41;100076.03;4917742;29;20035;-50
2022/03/22 02:07:20;;;;;;;18.58;8.98;;;;;;;10.31;48.48;100072.09;4917377;29;20084;-50
2022/03/22 02:09:46;;;;;;;20.20;10.27;;;;;;;10.25;49.01;100071.91;4916094;29;20442;-49
2022/03/22 02:12:11;;;;;;;19.30;9.85;;;;;;;10.08;48.99;100071.91;4915995;29;20032;-50
2022/03/22 02:14:37;;;;;;;18.42;9.50;;;;;;;9.93;49.32;100069.06;4917262;29;20028;-50
2022/03/22 02:17:09;;;;;;;19.13;9.43;;;;;;;9.79;49.73;100062.66;4917240;29;20035;-50
2022/03/22 02:19:39;;;;;;;21.67;10.23;;;;;;;9.61;50.50;100069.81;4917149;29;20055;-49
2022/03/22 02:22:12;;;;;;;23.48;9.73;;;;;;;9.54;50.26;100068.84;4917033;29;20462;-49
2022/03/22 02:24:39;;;;;;;17.45;9.25;;;;;;;9.45;50.72;100067.97;4917153;29;20473;-49
2022/03/22 02:27:07;;;;;;;16.77;9.68;;;;;;;9.43;50.97;100064.69;4915628;29;20028;-49
2022/03/22 02:29:33;;;;;;;20.88;9.27;;;;;;;9.45;50.85;100062.72;4916986;29;20115;-50
2022/03/22 02:31:58;;;;;;;19.63;9.88;;;;;;;9.53;51.36;100065.38;4916898;29;20451;-49
2022/03/22 02:34:24;;;;;;;17.30;9.68;;;;;;;9.60;51.90;100062.97;4915657;29;20187;-49
2022/03/22 02:36:50;;;;;;;21.25;10.68;;;;;;;9.55;51.17;100070.47;4915510;29;20032;-50
2022/03/22 02:39:16;;;;;;;23.17;10.65;;;;;;;9.49;51.64;100061.44;4916832;29;20024;-48
2022/03/22 02:41:42;;;;;;;18.65;9.73;;;;;;;9.48;51.47;100066.84;4915459;29;20032;-49
2022/03/22 02:44:10;;;;;;;21.75;10.55;;;;;;;9.43;51.25;100056.03;4916746;29;20407;-49
2022/03/22 02:46:37;;;;;;;18.13;10.43;;;;;;;9.29;51.36;100055.63;4916569;29;20024;-49
2022/03/22 02:49:06;;;;;;;17.95;10.70;;;;;;;9.16;51.12;100058.69;4915387;29;20031;-48
2022/03/22 02:51:31;;;;;;;21.30;10.95;;;;;;;9.15;51.39;100051.81;4916650;29;20028;-49
2022/03/22 02:53:57;;;;;;;19.85;10.02;;;;;;;9.05;51.62;100056.34;4916606;29;20028;-49
2022/03/22 02:56:23;;;;;;;19.13;9.98;;;;;;;8.95;51.79;100058.25;4915179;29;20035;-49
2022/03/22 02:58:48;;;;;;;20.80;10.85;;;;;;;8.85;52.44;100052.31;4916498;29;20025;-48
2022/03/22 03:01:14;;;;;;;16.58;9.93;;;;;;;8.84;52.11;100048.06;4915105;29;20032;-49
2022/03/22 03:03:40;;;;;;;21.67;12.18;;;;;;;8.75;52.91;100045.41;4915146;29;20569;-49
2022/03/22 03:06:06;;;;;;;23.13;11.82;;;;;;;8.70;52.86;100049.47;4916280;29;20489;-48
2022/03/22 03:08:32;;;;;;;19.67;11.50;;;;;;;8.68;52.67;100049.59;4916678;29;20107;-49
2022/03/22 03:10:57;;;;;;;19.92;10.48;;;;;;;8.76;52.79;100049.66;4916270;29;20131;-49
2022/03/22 03:13:23;;;;;;;16.67;10.40;;;;;;;8.70;53.06;100052.91;4916263;29;20397;-49
2022/03/22 03:15:52;;;;;;;20.48;11.10;;;;;;;8.70;52.76;100054.69;4916122;29;20040;-49
2022/03/22 03:18:18;;;;;;;21.77;11.07;;;;;;;8.70;52.68;100065.16;4916156;29;20048;-49
2022/03/22 03:20:44;;;;;;;19.02;10.35;;;;;;;8.62;52.19;100060.69;4915862;29;20055;-49
2022/03/22 03:23:10;;;;;;;15.23;10.00;;;;;;;8.52;52.62;100068.63;4916179;29;20028;-49
2022/03/22 03:25:36;;;;;;;20.05;10.70;;;;;;;8.53;52.99;100066.84;4915978;29;20541;-48
2022/03/22 03:28:02;;;;;;;17.13;10.13;;;;;;;8.48;53.31;100071.72;4916059;29;20032;-50
2022/03/22 03:30:29;;;;;;;19.67;9.30;;;;;;;8.39;52.91;100071.63;4915980;29;20035;-49
2022/03/22 03:32:55;;;;;;;17.13;8.98;;;;;;;8.36;52.98;100071.09;4915936;29;20032;-48
2022/03/22 03:35:21;;;;;;;20.42;9.75;;;;;;;8.47;52.85;100070.91;4915928;29;20035;-49
2022/03/22 03:37:46;;;;;;;16.55;9.23;;;;;;;8.48;53.43;100072.53;4915901;29;20517;-48
2022/03/22 03:40:13;;;;;;;13.57;9.30;;;;;;;8.48;52.64;100076.94;4915801;29;20574;-49
2022/03/22 03:42:42;;;;;;;20.15;9.65;;;;;;;8.32;52.33;100070.56;4915815;29;20028;-49
2022/03/22 03:47:59;;;;;;;15.48;10.38;;;;;;;8.37;52.43;100076.19;4916083;29;20059;-50
2022/03/22 03:50:25;;;;;;;25.83;12.32;;;;;;;8.50;53.80;100077.63;4914361;29;20507;-50
2022/03/22 03:52:50;;;;;;;19.65;9.77;;;;;;;8.49;52.17;100073.34;4915719;29;20028;-48
2022/03/22 03:55:16;;;;;;;21.10;9.45;;;;;;;8.36;52.43;100077.16;4915635;29;20027;-48
2022/03/22 03:57:44;;;;;;;18.00;9.20;;;;;;;8.40;52.51;100075.88;4915673;29;20059;-49
2022/03/22 04:00:10;;;;;;;20.08;9.38;;;;;;;8.40;52.26;100075.88;4915610;29;20020;-49
2022/03/22 04:02:36;;;;;;;16.20;9.38;;;;;;;8.35;52.42;100079.91;4914313;29;20036;-50
2022/03/22 04:05:02;;;;;;;23.35;10.80;;;;;;;8.30;52.52;100080.38;4915504;29;20026;-49
2022/03/22 04:07:28;;;;;;;15.20;9.90;;;;;;;8.32;52.76;100070.56;4915605;29;20083;-49
2022/03/22 04:09:54;;;;;;;21.48;10.13;;;;;;;8.26;51.95;100079.03;4914296;29;20443;-49
2022/03/22 04:12:22;;;;;;;20.55;9.82;;;;;;;8.30;52.87;100076.94;4914193;29;20130;-49
2022/03/22 04:14:51;;;;;;;20.40;10.13;;;;;;;8.31;52.01;100076.81;4914274;29;20451;-49
2022/03/22 04:17:18;;;;;;;19.98;9.15;;;;;;;8.23;52.87;100073.28;4914151;29;20243;-48
2022/03/22 04:19:45;;;;;;;16.25;10.25;;;;;;;8.18;52.90;100085.00;4914179;29;20033;-49
2022/03/22 04:22:10;;;;;;;20.52;10.85;;;;;;;8.10;53.30;100079.72;4915059;29;20092;-49
2022/03/22 04:24:36;;;;;;;20.23;10.70;;;;;;;8.07;52.92;100085.25;4914132;29;20040;-49
2022/03/22 04:32:43;;;;;;;20.75;10.00;;;;;;;8.09;53.50;100074.63;4919432;29;20080;-50
2022/03/22 04:35:24;;;;;;;19.25;9.77;;;;;;;8.06;53.36;100078.38;4919145;29;20491;-49
2022/03/22 04:37:53;;;;;;;24.95;10.73;;;;;;;7.99;53.00;100079.94;4919135;29;20039;-50
2022/03/22 04:40:19;;;;;;;17.15;9.82;;;;;;;7.96;52.88;100082.84;4919012;29;20487;-49
2022/03/22 04:42:47;;;;;;;18.40;10.63;;;;;;;7.85;52.55;100080.44;4918962;29;20025;-49
2022/03/22 04:45:13;;;;;;;22.67;11.18;;;;;;;7.84;53.10;100081.41;4918848;29;20028;-48
2022/03/22 04:47:39;;;;;;;22.35;10.10;;;;;;;7.78;53.42;100082.81;4918868;29;20032;-49
2022/03/22 04:50:06;;;;;;;22.63;12.77;;;;;;;7.72;53.71;100078.19;4918823;29;20024;-49
2022/03/22 04:58:02;;;;;;;23.08;9.88;;;;;;;7.91;53.20;100082.50;4919276;29;20066;-49
2022/03/22 05:00:28;;;;;;;17.35;9.50;;;;;;;7.84;53.23;100078.81;4918662;29;20028;-49
2022/03/22 05:02:53;;;;;;;24.27;9.73;;;;;;;7.75;52.79;100089.19;4918607;29;20031;-49
2022/03/22 05:06:25;;;;;;;20.38;9.82;;;;;;;7.78;53.04;100088.88;4917198;29;20036;-49
2022/03/22 05:08:05;;;;;;;21.35;10.50;;;;;;;7.79;53.29;100084.50;4918293;29;20495;-49
2022/03/22 05:10:35;;;;;;;17.92;10.13;;;;;;;7.68;53.41;100082.88;4917172;29;20055;-48
2022/03/22 05:13:01;;;;;;;29.52;10.27;;;;;;;7.78;53.60;100083.63;4917336;29;20064;-48
2022/03/22 05:15:27;;;;;;;32.15;11.32;;;;;;;7.77;52.93;100081.19;4917075;29;20063;-49
2022/03/22 05:17:53;;;;;;;25.55;9.57;;;;;;;7.78;53.22;100093.28;4918552;29;20020;-48
2022/03/22 05:20:19;;;;;;;16.38;9.25;;;;;;;7.78;52.57;100091.47;4918255;29;20024;-48
2022/03/22 05:22:45;;;;;;;29.65;12.27;;;;;;;7.74;53.30;100092.75;4918023;29;20055;-49
2022/03/22 05:25:11;;;;;;;21.30;9.82;;;;;;;7.84;52.75;100099.72;4918106;29;20129;-49
2022/03/22 05:27:37;;;;;;;17.50;8.82;;;;;;;7.79;52.99;100100.16;4916879;29;20131;-49
2022/03/22 05:30:05;;;;;;;19.38;9.25;;;;;;;7.84;52.98;100097.09;4918086;29;20507;-49
2022/03/22 05:32:31;;;;;;;20.13;9.40;;;;;;;7.83;52.25;100105.91;4918024;29;20060;-49
2022/03/22 05:34:57;;;;;;;27.63;11.85;;;;;;;7.81;52.46;100103.47;4918021;29;20061;-49
2022/03/22 05:37:23;;;;;;;13.55;8.77;;;;;;;7.89;52.56;100102.72;4917988;29;20028;-49
2022/03/22 05:39:49;;;;;;;25.08;11.15;;;;;;;7.83;52.03;100098.91;4916797;29;20068;-49
2022/03/22 05:42:15;;;;;;;22.20;10.10;;;;;;;7.75;51.74;100106.66;4917884;29;20380;-49
2022/03/22 05:44:41;;;;;;;15.13;9.52;;;;;;;7.76;51.28;100114.34;4917863;29;20107;-49
2022/03/22 05:47:07;;;;;;;14.88;8.55;;;;;;;7.71;52.07;100107.94;4916408;29;20412;-49
2022/03/22 05:49:33;;;;;;;17.70;9.75;;;;;;;7.91;51.74;100119.09;4917767;29;20028;-49
2022/03/22 05:52:00;;;;;;;18.20;9.73;;;;;;;8.10;51.22;100125.97;4916424;29;20171;-49
2022/03/22 05:54:26;;;;;;;18.15;9.65;;;;;;;8.29;50.26;100123.22;4917679;29;20024;-49
2022/03/22 05:56:51;;;;;;;25.35;10.07;;;;;;;8.46;50.59;100123.38;4917571;29;20039;-49
2022/03/22 05:59:17;;;;;;;21.83;10.02;;;;;;;8.59;49.91;100124.63;4917602;29;20025;-49
2022/03/22 06:01:46;;;;;;;24.77;9.07;;;;;;;8.64;49.08;100128.59;4917570;29;20111;-49
2022/03/22 06:04:12;;;;;;;27.33;9.88;;;;;;;8.83;49.23;100123.16;4917504;29;20406;-49
2022/03/22 06:06:39;;;;;;;25.98;9.40;;;;;;;9.07;49.10;100124.28;4916092;29;20032;-48
2022/03/22 06:09:06;;;;;;;22.77;9.63;;;;;;;9.09;48.27;100125.75;4917405;29;20020;-49
2022/03/22 06:11:35;;;;;;;19.10;9.57;;;;;;;9.06;48.60;100125.28;4916066;29;20027;-49
2022/03/22 06:14:04;;;;;;;20.13;8.98;;;;;;;8.97;48.51;100127.84;4917391;29;20035;-49
2022/03/22 06:16:30;;;;;;;25.13;11.30;;;;;;;9.00;48.99;100126.72;4917257;29;20035;-49
2022/03/22 06:18:56;;;;;;;23.40;10.93;;;;;;;9.24;48.80;100127.84;4917224;29;20394;-49
2022/03/22 06:21:22;;;;;;;27.08;11.02;;;;;;;9.52;48.25;100133.69;4916914;29;20108;-50
2022/03/22 06:23:48;;;;;;;28.73;11.40;;;;;;;9.66;48.41;100130.47;4917076;29;20455;-48
2022/03/22 06:26:14;;;;;;;28.52;10.85;;;;;;;9.99;47.41;100133.19;4915712;29;20503;-49
2022/03/22 06:28:41;;;;;;;21.70;10.15;;;;;;;10.26;46.58;100133.88;4915756;29;20092;-50
2022/03/22 06:31:07;;;;;;;20.10;9.80;;;;;;;10.55;46.23;100136.88;4915717;29;20111;-49
2022/03/22 06:33:33;;;;;;;21.92;10.63;;;;;;;11.32;44.84;100133.78;4917006;29;20406;-50
2022/03/22 06:35:59;;;;;;;29.33;12.68;;;;;;;11.90;44.05;100134.41;4916849;29;20038;-49
2022/03/22 06:38:25;;;;;;;26.27;9.43;;;;;;;12.69;41.89;100135.97;4916905;29;20376;-49
2022/03/22 06:40:51;;;;;;;23.85;9.50;;;;;;;13.07;41.05;100134.13;4916807;29;20463;-50
2022/03/22 06:43:19;;;;;;;30.92;10.00;;;;;;;13.16;40.59;100137.50;4916718;29;20028;-49
2022/03/22 06:45:46;;;;;;;30.55;10.40;;;;;;;13.39;39.94;100135.63;4916645;29;20062;-49
2022/03/22 06:48:14;;;;;;;29.75;10.88;;;;;;;13.31;40.36;100135.72;4915462;29;20024;-50
2022/03/22 06:50:40;;;;;;;28.67;10.00;;;;;;;13.27;40.57;100130.97;4915080;29;20059;-50
2022/03/22 06:53:07;;;;;;;75.57;12.77;;;;;;;13.52;40.59;100136.78;4915351;29;20119;-50
2022/03/22 06:55:35;;;;;;;52.20;12.38;;;;;;;13.86;39.80;100144.09;4916517;29;20028;-49
2022/03/22 06:58:02;;;;;;;58.17;12.40;;;;;;;14.67;38.80;100143.06;4916528;29;20052;-49
2022/03/22 07:00:28;;;;;;;34.17;10.88;;;;;;;15.47;36.81;100147.06;4916498;29;20084;-50
2022/03/22 07:02:55;;;;;;;41.05;10.20;;;;;;;16.02;36.00;100146.28;4915123;29;20568;-50
2022/03/22 07:05:21;;;;;;;49.75;10.88;;;;;;;16.75;34.74;100149.84;4916234;29;20522;-50
2022/03/22 07:07:47;;;;;;;21.85;10.98;;;;;;;17.40;33.25;100149.13;4916338;29;20060;-50
2022/03/22 07:10:15;;;;;;;48.60;13.23;;;;;;;17.80;33.04;100146.34;4916336;29;20067;-51
2022/03/22 07:12:51;;;;;;;51.80;11.05;;;;;;;17.75;32.75;100146.97;4916209;29;20032;-50
2022/03/22 07:15:33;;;;;;;33.78;11.50;;;;;;;17.20;33.33;100149.19;4916171;29;20024;-50
2022/03/22 07:18:00;;;;;;;43.22;12.02;;;;;;;17.98;32.46;100153.63;4916412;29;20054;-51
2022/03/22 07:20:26;;;;;;;29.85;11.52;;;;;;;19.16;30.92;100149.50;4916081;29;20043;-51
2022/03/22 07:22:52;;;;;;;35.35;9.93;;;;;;;19.89;29.53;100143.31;4915909;29;20040;-50
2022/03/22 07:25:18;;;;;;;39.25;11.50;;;;;;;20.19;29.42;100153.16;4916222;29;20028;-51
2022/03/22 07:27:45;;;;;;;50.13;12.05;;;;;;;20.97;28.35;100151.34;4899077;29;20036;-50
2022/03/22 07:30:11;;;;;;;59.90;12.60;;;;;;;21.85;27.72;100146.78;4915923;29;20044;-51
2022/03/22 07:32:39;;;;;;;48.28;12.15;;;;;;;22.42;26.50;100153.13;4915931;29;20111;-50
2022/03/22 07:35:06;;;;;;;33.95;12.05;;;;;;;22.85;26.55;100154.34;4899076;29;20490;-51
2022/03/22 07:37:32;;;;;;;57.67;13.35;;;;;;;23.56;25.83;100151.00;4915887;29;20031;-50
2022/03/22 07:39:59;;;;;;;18.55;9.60;;;;;;;24.13;24.15;100156.75;4915836;29;20024;-51
2022/03/22 07:42:27;;;;;;;34.42;11.25;;;;;;;24.29;24.06;100155.03;4914612;29;20039;-51
2022/03/22 07:44:57;;;;;;;17.83;9.88;;;;;;;23.80;24.29;100157.75;4915811;29;20028;-50
2022/03/22 07:47:23;;;;;;;24.95;11.25;;;;;;;24.16;23.79;100157.31;4915628;29;20107;-51
2022/03/22 07:55:19;;;;;;;28.40;11.17;;;;;;;25.11;22.83;100166.38;4916035;29;20486;-50
2022/03/22 07:57:45;;;;;;;34.45;11.65;;;;;;;25.30;22.23;100172.16;4914441;29;20293;-51
2022/03/22 08:00:11;;;;;;;43.97;11.18;;;;;;;25.02;22.03;100167.13;4915674;29;20495;-51
2022/03/22 08:02:37;;;;;;;36.33;11.98;;;;;;;24.80;22.86;100176.09;4915054;29;20059;-51
2022/03/22 08:05:06;;;;;;;29.98;11.38;;;;;;;24.80;22.29;100164.56;4915502;29;20111;-51
2022/03/22 08:07:32;;;;;;;30.55;10.63;;;;;;;24.22;21.60;100173.19;4914564;29;20447;-51
2022/03/22 08:09:58;;;;;;;25.23;10.50;;;;;;;23.20;22.35;100171.97;4915551;29;20026;-51
2022/03/22 08:12:24;;;;;;;21.50;9.15;;;;;;;22.77;22.90;100176.16;4914255;29;20605;-51
2022/03/22 08:14:49;;;;;;;22.52;8.38;;;;;;;22.72;22.87;100174.22;4915704;29;20483;-50
2022/03/22 08:17:15;;;;;;;26.15;9.20;;;;;;;22.72;22.87;100171.53;4915512;29;20028;-51
2022/03/22 08:19:42;;;;;;;17.10;8.63;;;;;;;21.81;23.23;100180.38;4915506;29;20021;-52
2022/03/22 08:22:08;;;;;;;21.55;8.18;;;;;;;21.16;23.45;100176.03;4915134;29;20043;-50
2022/03/22 08:24:34;;;;;;;28.00;10.10;;;;;;;21.86;23.94;100172.44;4915384;29;20032;-50
2022/03/22 08:27:00;;;;;;;39.60;12.00;;;;;;;22.41;22.75;100168.34;4915333;29;20368;-51
2022/03/22 08:29:26;;;;;;;11.82;7.53;;;;;;;22.94;20.92;100171.59;4915317;29;20059;-51
2022/03/22 08:31:52;;;;;;;21.63;7.60;;;;;;;23.98;20.61;100161.94;4915249;29;20021;-51
2022/03/22 08:34:19;;;;;;;26.50;13.75;;;;;;;24.98;19.36;100156.09;4915633;29;20032;-51
2022/03/22 08:36:45;;;;;;;58.03;27.60;;;;;;;25.09;19.58;100162.31;4915211;29;20035;-51
2022/03/22 08:39:11;;;;;;;14.52;10.15;;;;;;;24.91;19.00;100167.06;4915346;29;20028;-51
2022/03/22 08:41:37;;;;;;;19.38;10.52;;;;;;;24.85;18.96;100153.84;4915247;29;20474;-51
2022/03/22 08:44:03;;;;;;;15.18;7.28;;;;;;;25.08;18.53;100150.78;4915292;29;20028;-51
2022/03/22 08:46:31;;;;;;;22.23;8.75;;;;;;;25.23;18.38;100158.16;4915177;29;20103;-50
2022/03/22 08:48:58;;;;;;;11.48;7.32;;;;;;;25.60;17.89;100151.84;4915217;29;20116;-51
2022/03/22 08:51:26;;;;;;;22.17;8.45;;;;;;;25.51;17.80;100148.03;4915233;29;20103;-51
2022/03/22 08:53:53;;;;;;;17.27;8.55;;;;;;;25.14;17.45;100148.94;4913934;29;20402;-51
2022/03/22 08:56:22;;;;;;;16.15;8.85;;;;;;;24.79;17.77;100155.72;4915180;29;20398;-51
2022/03/22 08:58:52;;;;;;;27.10;8.70;;;;;;;24.55;18.01;100151.75;4914211;29;20095;-51
2022/03/22 09:01:17;;;;;;;23.08;10.80;;;;;;;25.06;18.28;100152.09;4915033;29;20079;-51
2022/03/22 09:06:07;;;;;;;27.80;10.05;;;;;;;25.64;17.78;100141.38;4915107;29;20024;-50
2022/03/22 09:06:29;;;;;;;21.10;9.20;;;;;;;25.59;17.03;100144.84;4914947;29;20541;-51
2022/03/22 09:08:55;;;;;;;30.17;12.45;;;;;;;25.19;17.77;100165.06;4915350;29;20043;-51
2022/03/22 09:11:20;;;;;;;23.23;9.65;;;;;;;25.25;17.34;100157.88;4915040;29;20020;-51
2022/03/22 09:13:46;;;;;;;38.00;14.85;;;;;;;25.10;17.65;100156.69;4915150;29;20450;-51
2022/03/22 09:16:13;;;;;;;27.83;9.60;;;;;;;24.72;17.85;100163.16;4917095;29;20506;-51
2022/03/22 09:18:39;;;;;;;23.17;9.07;;;;;;;25.23;17.45;100163.53;4918363;29;20107;-51
2022/03/22 09:21:05;;;;;;;23.15;9.80;;;;;;;25.10;17.44;100155.88;4916774;29;20135;-51
2022/03/22 09:23:31;;;;;;;24.83;10.95;;;;;;;24.83;17.88;100159.50;4918309;29;20459;-51
2022/03/22 09:25:57;;;;;;;18.45;9.50;;;;;;;24.36;18.10;100143.25;4916866;29;20035;-51
2022/03/22 09:28:22;;;;;;;17.77;8.77;;;;;;;23.99;18.36;100154.75;4918223;29;20020;-51
2022/03/22 09:30:48;;;;;;;13.52;7.75;;;;;;;24.19;17.92;100148.75;4918454;29;20062;-52
2022/03/22 09:33:14;;;;;;;19.50;11.23;;;;;;;24.07;17.86;100152.41;4918159;29;20152;-51
2022/03/22 09:35:40;;;;;;;13.68;9.52;;;;;;;23.82;18.71;100144.91;4918052;29;20039;-51
2022/03/22 09:38:05;;;;;;;19.08;9.93;;;;;;;23.87;18.77;100146.84;4917999;29;20028;-51
2022/03/22 09:40:31;;;;;;;17.67;8.48;;;;;;;24.06;18.37;100139.25;4917952;29;20032;-51
2022/03/22 09:42:57;;;;;;;18.50;8.50;;;;;;;23.81;18.42;100143.28;4916666;29;20028;-50
2022/03/22 09:45:29;;;;;;;28.75;11.80;;;;;;;23.81;19.25;100127.19;4917772;29;20032;-51
2022/03/22 09:47:56;;;;;;;29.42;12.50;;;;;;;23.92;19.02;100134.28;4917853;29;20039;-50
2022/03/22 09:51:44;;;;;;;21.08;9.35;;;;;;;24.24;18.65;100135.38;4917772;29;20028;-51
2022/03/22 09:53:10;;;;;;;21.15;10.32;;;;;;;24.72;18.33;100130.94;4917708;29;20072;-51
2022/03/22 09:55:36;;;;;;;24.58;9.35;;;;;;;25.33;17.54;100127.00;4917652;29;20038;-51
2022/03/22 09:58:02;;;;;;;16.33;8.20;;;;;;;25.97;16.99;100125.88;4916400;29;20028;-51
2022/03/22 10:00:27;;;;;;;19.67;10.88;;;;;;;26.22;16.58;100123.19;4916318;29;20059;-51
2022/03/22 10:02:53;;;;;;;21.02;10.25;;;;;;;26.23;16.91;100118.63;4917542;29;20143;-51
2022/03/22 10:05:23;;;;;;;19.08;8.57;;;;;;;26.33;15.84;100124.00;4917685;29;20510;-51
2022/03/22 10:08:06;;;;;;;12.13;7.97;;;;;;;26.29;15.39;100109.47;4917532;29;20439;-51
2022/03/22 10:10:32;;;;;;;12.73;8.57;;;;;;;25.43;15.54;100119.78;4916173;29;20047;-51
2022/03/22 10:13:00;;;;;;;11.93;7.80;;;;;;;25.14;16.43;100116.69;4916100;29;20395;-51
2022/03/22 10:15:29;;;;;;;17.85;8.55;;;;;;;25.92;15.83;100105.16;4916027;29;20123;-51
2022/03/22 10:18:05;;;;;;;12.45;7.57;;;;;;;26.46;14.99;100101.94;4916038;29;20518;-52
2022/03/22 10:20:31;;;;;;;19.05;10.98;;;;;;;26.49;15.13;100098.69;4917046;29;20028;-51
2022/03/22 10:22:58;;;;;;;17.25;10.23;;;;;;;26.56;15.02;100092.22;4915847;29;20504;-50
2022/03/22 10:25:25;;;;;;;11.65;8.18;;;;;;;26.74;15.21;100091.66;4915423;29;20051;-51
2022/03/22 10:27:55;;;;;;;26.05;15.63;;;;;;;27.18;15.23;100085.59;4915531;29;20426;-51
2022/03/22 10:30:22;;;;;;;14.45;7.70;;;;;;;27.41;14.35;100076.09;4917103;29;20032;-51
2022/03/22 10:32:52;;;;;;;16.65;9.35;;;;;;;27.70;14.61;100088.84;4916935;29;20046;-51
2022/03/22 10:35:20;;;;;;;13.57;8.23;;;;;;;27.66;13.72;100083.19;4916918;29;20113;-51
2022/03/22 10:37:55;;;;;;;10.77;7.70;;;;;;;27.52;13.58;100068.72;4916930;29;20020;-51
2022/03/22 10:40:23;;;;;;;16.55;10.38;;;;;;;27.14;13.88;100068.34;4916911;29;20541;-52
2022/03/22 10:42:51;;;;;;;14.13;9.80;;;;;;;26.37;13.57;100089.28;4916857;29;20494;-51
2022/03/22 10:45:17;;;;;;;31.23;9.00;;;;;;;26.18;14.34;100080.94;4916945;29;20435;-50
2022/03/22 10:47:44;;;;;;;21.27;11.48;;;;;;;25.73;14.73;100077.13;4916773;29;20024;-51
2022/03/22 10:50:10;;;;;;;29.25;15.20;;;;;;;25.63;16.24;100073.31;4916662;29;20032;-51
2022/03/22 10:52:47;;;;;;;11.40;7.57;;;;;;;26.48;14.37;100066.63;4916706;29;20095;-51
2022/03/22 10:55:19;;;;;;;13.88;8.55;;;;;;;27.33;13.48;100070.47;4916639;29;20118;-51
2022/03/22 10:57:48;;;;;;;15.10;8.18;;;;;;;26.98;13.12;100058.72;4916521;29;20025;-51
2022/03/22 11:00:14;;;;;;;17.00;9.38;;;;;;;26.41;13.81;100058.06;4916560;29;20051;-50
2022/03/22 11:02:41;;;;;;;8.32;6.63;;;;;;;26.27;13.28;100058.59;4916500;29;20031;-51
2022/03/22 11:05:08;;;;;;;13.95;10.60;;;;;;;26.41;13.71;100055.34;4916418;29;20031;-51
2022/03/22 11:07:39;;;;;;;13.75;7.53;;;;;;;26.39;13.76;100047.53;4916282;29;20020;-50
2022/03/22 11:10:06;;;;;;;10.48;7.95;;;;;;;26.41;13.97;100047.28;4916386;29;20055;-51
2022/03/22 11:12:33;;;;;;;17.55;10.60;;;;;;;26.89;13.93;100034.25;4914976;29;20400;-51
2022/03/22 11:14:59;;;;;;;15.38;8.77;;;;;;;27.12;13.68;100038.19;4916306;29;20028;-51
2022/03/22 11:17:28;;;;;;;14.77;9.15;;;;;;;26.40;14.01;100037.56;4916194;29;20028;-52
2022/03/22 11:19:59;;;;;;;8.80;7.25;;;;;;;26.27;13.97;100041.66;4916457;29;20036;-52
2022/03/22 11:22:25;;;;;;;10.55;7.20;;;;;;;26.95;13.78;100032.34;4915901;29;20052;-52
2022/03/22 11:24:52;;;;;;;20.38;10.52;;;;;;;27.30;13.35;100026.00;4916148;29;20020;-52
2022/03/22 11:27:29;;;;;;;9.07;6.97;;;;;;;28.21;12.91;100028.28;4915966;29;20024;-51
2022/03/22 11:29:55;;;;;;;13.02;7.93;;;;;;;28.47;12.41;100037.75;4916116;29;20032;-52
2022/03/22 11:35:13;;;;;;;9.25;7.63;;;;;;;27.21;13.01;100023.06;4916250;29;20075;-51
2022/03/22 11:37:40;;;;;;;10.20;7.63;;;;;;;27.38;13.05;100020.00;4915083;29;20083;-51
2022/03/22 11:43:01;;;;;;;13.40;8.23;;;;;;;27.31;13.62;100016.84;4916223;29;20661;-51
2022/03/22 11:45:27;;;;;;;8.55;7.47;;;;;;;27.07;13.58;100013.97;4915708;29;20573;-51
2022/03/22 11:47:53;;;;;;;11.95;8.30;;;;;;;27.05;13.33;100005.34;4914504;29;20115;-51